Time;durP1;ratioP1;P1;durP2;ratioP2;P2;SDS_P1;SDS_P2;PMS_P1;PMS_P2;Temp;Humidity;BMP_temperature;BMP_pressure;BME280_temperature;BME280_humidity;BME280_pressure;Samples;Min_cycle;Max_cycle;Signal;HPM_P1;HPM_P2
2024/01/03 00:01:19;;;;;;;0.40;0.40;;;8.60;99.90;;;;;;5065116;28;20052;-74
2024/01/03 00:03:44;;;;;;;0.50;0.50;;;8.60;99.90;;;;;;5058246;28;20045;-74
2024/01/03 00:06:14;;;;;;;1.85;1.75;;;8.60;99.90;;;;;;5062008;28;20462;-73
2024/01/03 00:08:39;;;;;;;0.50;0.50;;;8.60;99.90;;;;;;5061491;28;20447;-73
2024/01/03 00:11:06;;;;;;;0.40;0.40;;;8.50;99.90;;;;;;5065520;28;20040;-74
2024/01/03 00:13:38;;;;;;;1.45;1.35;;;8.50;99.90;;;;;;5064465;28;20067;-73
2024/01/03 00:16:03;;;;;;;1.15;1.15;;;8.50;99.90;;;;;;5057950;28;20032;-74
2024/01/03 00:18:54;;;;;;;0.52;0.50;;;8.50;99.90;;;;;;5065296;28;20040;-74
2024/01/03 00:21:25;;;;;;;0.50;0.50;;;8.40;99.90;;;;;;5059827;28;20128;-73
2024/01/03 00:23:56;;;;;;;0.75;0.75;;;8.40;99.90;;;;;;5040725;28;20099;-73
2024/01/03 00:26:23;;;;;;;0.50;0.50;;;8.40;99.90;;;;;;5051566;28;20072;-74
2024/01/03 00:28:49;;;;;;;0.82;0.82;;;8.40;99.90;;;;;;5048297;28;20136;-74
2024/01/03 00:31:42;;;;;;;0.80;0.80;;;8.40;99.90;;;;;;5055160;28;20037;-73
2024/01/03 00:34:40;;;;;;;0.40;0.40;;;8.30;99.90;;;;;;5056158;28;20051;-73
2024/01/03 00:37:30;;;;;;;0.65;0.65;;;8.30;99.90;;;;;;5046833;28;20043;-74
2024/01/03 00:39:57;;;;;;;0.82;0.82;;;8.30;99.90;;;;;;5051940;28;20074;-74
2024/01/03 00:42:23;;;;;;;0.50;0.50;;;8.30;99.90;;;;;;5057893;28;20130;-74
2024/01/03 00:44:49;;;;;;;1.15;1.15;;;8.30;99.90;;;;;;5065761;28;20048;-74
2024/01/03 00:47:16;;;;;;;1.70;1.60;;;8.30;99.90;;;;;;5043949;28;20040;-74
2024/01/03 00:49:42;;;;;;;0.80;0.80;;;8.20;99.90;;;;;;5064678;28;20048;-73
2024/01/03 00:52:09;;;;;;;0.50;0.50;;;8.20;99.90;;;;;;5061754;28;21035;-73
2024/01/03 00:54:35;;;;;;;0.80;0.80;;;8.20;99.90;;;;;;5059502;28;20040;-74
2024/01/03 00:57:01;;;;;;;0.55;0.55;;;8.20;99.90;;;;;;5057169;28;20028;-74
2024/01/03 00:59:28;;;;;;;0.65;0.63;;;8.20;99.90;;;;;;5057052;28;20052;-73
2024/01/03 01:01:54;;;;;;;0.50;0.50;;;8.10;99.90;;;;;;5048800;28;20033;-73
2024/01/03 01:04:20;;;;;;;1.05;1.02;;;8.10;99.90;;;;;;5065379;28;20047;-73
2024/01/03 01:06:46;;;;;;;2.83;0.73;;;8.10;99.90;;;;;;5057379;28;20028;-73
2024/01/03 01:09:12;;;;;;;0.70;0.70;;;8.10;99.90;;;;;;5061542;28;20037;-73
2024/01/03 01:11:37;;;;;;;0.50;0.50;;;8.00;99.90;;;;;;5056086;28;20126;-76
2024/01/03 01:14:03;;;;;;;0.68;0.68;;;8.00;99.90;;;;;;5049018;28;20076;-73
2024/01/03 01:16:29;;;;;;;0.70;0.70;;;7.90;99.90;;;;;;5037325;28;20402;-72
2024/01/03 01:18:55;;;;;;;0.40;0.40;;;8.00;99.90;;;;;;5062524;28;20032;-73
2024/01/03 01:21:20;;;;;;;0.68;0.68;;;8.00;99.90;;;;;;5053095;28;20036;-73
2024/01/03 01:23:46;;;;;;;0.60;0.60;;;8.00;99.90;;;;;;5045663;28;20123;-73
2024/01/03 01:26:11;;;;;;;12.18;1.50;;;8.00;99.90;;;;;;5053901;28;20041;-73
2024/01/03 01:28:37;;;;;;;0.60;0.60;;;8.00;99.90;;;;;;5054278;28;20076;-73
2024/01/03 01:31:03;;;;;;;0.63;0.63;;;8.00;99.90;;;;;;5052860;28;20048;-73
2024/01/03 01:33:29;;;;;;;1.80;1.65;;;8.00;99.90;;;;;;5059280;28;20029;-72
2024/01/03 01:35:54;;;;;;;0.82;0.80;;;7.90;99.90;;;;;;5047187;28;20049;-72
2024/01/03 01:38:20;;;;;;;0.50;0.50;;;8.00;99.90;;;;;;5049560;28;20037;-72
2024/01/03 01:40:49;;;;;;;1.00;1.00;;;8.00;99.90;;;;;;5061556;28;20375;-72
2024/01/03 01:43:15;;;;;;;0.40;0.40;;;8.00;99.90;;;;;;5039456;28;20040;-73
2024/01/03 01:45:41;;;;;;;0.50;0.50;;;8.00;99.90;;;;;;5050746;28;20032;-73
2024/01/03 01:48:08;;;;;;;0.60;0.60;;;8.00;99.90;;;;;;5055235;28;20040;-73
2024/01/03 01:50:38;;;;;;;0.60;0.60;;;8.00;99.90;;;;;;5055677;28;20049;-73
2024/01/03 01:53:05;;;;;;;0.50;0.50;;;8.00;99.90;;;;;;5057195;28;20813;-73
2024/01/03 01:55:31;;;;;;;0.90;0.90;;;8.00;99.90;;;;;;5059841;28;20605;-73
2024/01/03 01:57:57;;;;;;;0.50;0.50;;;8.00;99.90;;;;;;5056536;28;20041;-73
2024/01/03 02:00:22;;;;;;;0.82;0.60;;;8.00;99.90;;;;;;5055327;28;20040;-73
2024/01/03 02:02:48;;;;;;;0.50;0.50;;;8.00;99.90;;;;;;5059192;28;20477;-73
2024/01/03 02:05:14;;;;;;;0.98;0.93;;;8.10;99.90;;;;;;5036345;28;20041;-73
2024/01/03 02:07:40;;;;;;;0.50;0.50;;;8.00;99.90;;;;;;5045439;28;20055;-73
2024/01/03 02:10:08;;;;;;;2.28;1.50;;;8.10;99.90;;;;;;5063400;28;20091;-73
2024/01/03 02:12:35;;;;;;;0.50;0.50;;;8.00;99.90;;;;;;5052364;28;20037;-73
2024/01/03 02:15:00;;;;;;;0.60;0.60;;;8.10;99.90;;;;;;5060041;28;20135;-73
2024/01/03 02:17:27;;;;;;;0.70;0.70;;;8.10;99.90;;;;;;5062646;28;20144;-73
2024/01/03 02:19:56;;;;;;;0.70;0.70;;;8.10;99.90;;;;;;5058566;28;20060;-73
2024/01/03 02:22:21;;;;;;;;;;;8.10;99.90;;;;;;5055508;28;20060;-73
2024/01/03 02:24:47;;;;;;;0.63;0.63;;;8.10;99.90;;;;;;5047172;28;19920;-73
2024/01/03 02:27:13;;;;;;;1.15;0.80;;;8.10;99.90;;;;;;5065652;28;20029;-72
2024/01/03 02:29:38;;;;;;;0.70;0.70;;;8.20;99.90;;;;;;5056368;28;20138;-72
2024/01/03 02:32:04;;;;;;;0.70;0.70;;;8.10;99.90;;;;;;5060454;28;20426;-72
2024/01/03 02:34:31;;;;;;;0.50;0.50;;;8.20;99.90;;;;;;5061324;28;20087;-72
2024/01/03 02:36:57;;;;;;;1.35;0.90;;;8.20;99.90;;;;;;5050033;28;20041;-73
2024/01/03 02:39:23;;;;;;;11.27;0.95;;;8.20;99.90;;;;;;5060263;28;20041;-72
2024/01/03 02:41:48;;;;;;;1.23;1.00;;;8.20;99.90;;;;;;5058516;28;20052;-72
2024/01/03 02:44:14;;;;;;;0.57;0.57;;;8.30;99.90;;;;;;5056061;28;20106;-72
2024/01/03 02:46:40;;;;;;;0.85;0.85;;;8.30;99.90;;;;;;5059040;28;20033;-72
2024/01/03 02:49:06;;;;;;;0.50;0.50;;;8.30;99.90;;;;;;5047465;28;20044;-72
2024/01/03 02:51:31;;;;;;;0.50;0.50;;;8.30;99.90;;;;;;5053370;28;20136;-72
2024/01/03 02:53:57;;;;;;;0.65;0.65;;;8.30;99.90;;;;;;5055536;28;20105;-72
2024/01/03 02:56:23;;;;;;;3.50;0.60;;;8.40;99.90;;;;;;5056162;28;20067;-72
2024/01/03 02:58:48;;;;;;;0.50;0.50;;;8.40;99.90;;;;;;5046783;28;20102;-73
2024/01/03 03:01:14;;;;;;;0.75;0.75;;;8.40;99.90;;;;;;5052206;28;20052;-72
2024/01/03 03:03:41;;;;;;;0.77;0.77;;;8.40;99.90;;;;;;5043567;28;20040;-72
2024/01/03 03:06:06;;;;;;;0.63;0.63;;;8.40;99.90;;;;;;5060195;28;20048;-72
2024/01/03 03:08:32;;;;;;;0.50;0.50;;;8.40;99.90;;;;;;5057633;28;20044;-72
2024/01/03 03:10:58;;;;;;;1.85;1.75;;;8.40;99.90;;;;;;5053023;28;20130;-72
2024/01/03 03:13:24;;;;;;;1.75;0.95;;;8.40;99.90;;;;;;5050189;28;20056;-73
2024/01/03 03:15:49;;;;;;;0.75;0.75;;;8.40;99.90;;;;;;5057744;28;20041;-72
2024/01/03 03:18:15;;;;;;;0.50;0.50;;;8.30;99.90;;;;;;5052102;28;20458;-72
2024/01/03 03:20:41;;;;;;;0.98;0.88;;;8.30;99.90;;;;;;5033770;28;20539;-72
2024/01/03 03:23:06;;;;;;;0.50;0.50;;;8.30;99.90;;;;;;5057110;28;20119;-72
2024/01/03 03:25:32;;;;;;;0.45;0.45;;;8.30;99.90;;;;;;5064133;28;20047;-72
2024/01/03 03:28:02;;;;;;;2.50;1.63;;;8.30;99.90;;;;;;5056534;28;20106;-72
2024/01/03 03:30:27;;;;;;;0.55;0.55;;;8.30;99.90;;;;;;5059622;28;20117;-72
2024/01/03 03:32:53;;;;;;;0.50;0.50;;;8.30;99.90;;;;;;5060873;28;20040;-72
2024/01/03 03:35:18;;;;;;;0.50;0.50;;;8.20;99.90;;;;;;5063869;28;20032;-72
2024/01/03 03:37:44;;;;;;;0.70;0.70;;;8.30;99.90;;;;;;5051880;28;20048;-72
2024/01/03 03:40:10;;;;;;;0.50;0.50;;;8.20;99.90;;;;;;5051705;28;20045;-72
2024/01/03 03:42:36;;;;;;;0.57;0.57;;;8.20;99.90;;;;;;5057421;28;20059;-72
2024/01/03 03:45:02;;;;;;;0.47;0.47;;;8.20;99.90;;;;;;5035075;28;20370;-72
2024/01/03 03:47:27;;;;;;;0.50;0.50;;;8.10;99.90;;;;;;5058007;28;20048;-72
2024/01/03 03:49:53;;;;;;;0.50;0.50;;;8.20;99.90;;;;;;5048495;28;20095;-71
2024/01/03 03:52:19;;;;;;;0.50;0.50;;;8.10;99.90;;;;;;5054511;28;20059;-72
2024/01/03 03:54:44;;;;;;;0.40;0.40;;;8.20;99.90;;;;;;5048822;28;20037;-72
2024/01/03 03:57:10;;;;;;;0.60;0.60;;;8.10;99.90;;;;;;5062232;28;20036;-72
2024/01/03 03:59:36;;;;;;;0.40;0.40;;;8.10;99.90;;;;;;5058337;28;20047;-72
2024/01/03 04:02:01;;;;;;;0.43;0.43;;;8.10;99.90;;;;;;5052522;28;20036;-72
2024/01/03 04:04:27;;;;;;;0.85;0.85;;;8.10;99.90;;;;;;5056105;28;20032;-71
2024/01/03 04:06:53;;;;;;;0.50;0.50;;;8.00;99.90;;;;;;5051186;28;20075;-73
2024/01/03 04:09:19;;;;;;;0.40;0.40;;;8.10;99.90;;;;;;5054930;28;20051;-72
2024/01/03 04:11:45;;;;;;;0.40;0.40;;;8.00;99.90;;;;;;5048522;28;20125;-77
2024/01/03 04:14:11;;;;;;;1.15;0.55;;;8.10;99.90;;;;;;5063701;28;20481;-73
2024/01/03 04:16:37;;;;;;;0.50;0.50;;;8.10;99.90;;;;;;5065069;28;20040;-73
2024/01/03 04:19:03;;;;;;;0.50;0.50;;;8.10;99.90;;;;;;5055538;28;20487;-73
2024/01/03 04:21:30;;;;;;;0.43;0.43;;;8.00;99.90;;;;;;5049752;28;20082;-72
2024/01/03 04:23:56;;;;;;;0.50;0.50;;;8.00;99.90;;;;;;5055095;28;20051;-73
2024/01/03 04:26:22;;;;;;;0.50;0.50;;;8.00;99.90;;;;;;5054525;28;20036;-73
2024/01/03 04:28:48;;;;;;;0.50;0.50;;;8.10;99.90;;;;;;5049815;28;20053;-73
2024/01/03 04:31:14;;;;;;;0.50;0.50;;;8.10;99.90;;;;;;5041707;28;20041;-72
2024/01/03 04:33:39;;;;;;;0.40;0.40;;;8.10;99.90;;;;;;5065842;28;20382;-73
2024/01/03 04:36:06;;;;;;;0.75;0.75;;;8.10;99.90;;;;;;5069281;28;20032;-72
2024/01/03 04:38:31;;;;;;;1.15;1.05;;;8.10;99.90;;;;;;5055745;28;20108;-73
2024/01/03 04:40:57;;;;;;;6.15;1.83;;;8.20;99.90;;;;;;5059906;28;20111;-72
2024/01/03 04:43:23;;;;;;;0.60;0.60;;;8.20;99.90;;;;;;5065950;28;20045;-72
2024/01/03 04:45:48;;;;;;;0.55;0.55;;;8.20;99.90;;;;;;5056666;28;20045;-74
2024/01/03 04:48:14;;;;;;;1.25;1.00;;;8.30;99.90;;;;;;5043410;28;20115;-74
2024/01/03 04:50:40;;;;;;;0.68;0.68;;;8.30;99.90;;;;;;5056120;28;20071;-76
2024/01/03 04:53:06;;;;;;;0.57;0.57;;;8.40;99.90;;;;;;5043984;28;20037;-73
2024/01/03 04:55:32;;;;;;;5.80;1.35;;;8.40;99.90;;;;;;5057531;28;20033;-73
2024/01/03 04:57:58;;;;;;;0.50;0.50;;;8.40;99.90;;;;;;5055908;28;20120;-74
2024/01/03 05:00:24;;;;;;;1.77;1.42;;;8.50;99.90;;;;;;5052949;28;20838;-72
2024/01/03 05:02:50;;;;;;;1.30;1.20;;;8.50;99.90;;;;;;5056442;28;20049;-72
2024/01/03 05:05:15;;;;;;;8.60;2.67;;;8.50;99.90;;;;;;5060304;28;20052;-72
2024/01/03 05:07:41;;;;;;;1.15;1.15;;;8.60;99.90;;;;;;5060504;28;20379;-72
2024/01/03 05:10:09;;;;;;;0.63;0.63;;;8.60;99.90;;;;;;5053397;28;20037;-72
2024/01/03 05:12:35;;;;;;;0.60;0.60;;;8.60;99.90;;;;;;5055711;28;20040;-72
2024/01/03 05:15:03;;;;;;;1.73;1.65;;;8.60;99.90;;;;;;5058467;28;20036;-72
2024/01/03 05:17:28;;;;;;;0.80;0.80;;;8.70;99.90;;;;;;5048100;28;20051;-72
2024/01/03 05:19:56;;;;;;;1.05;1.05;;;8.60;99.90;;;;;;5060037;28;20487;-72
2024/01/03 05:22:21;;;;;;;0.80;0.80;;;8.70;99.90;;;;;;5060930;28;20043;-72
2024/01/03 05:24:47;;;;;;;0.50;0.50;;;8.70;99.90;;;;;;5053906;28;20028;-72
2024/01/03 05:27:12;;;;;;;0.60;0.60;;;8.70;99.90;;;;;;5058855;28;20714;-72
2024/01/03 05:29:38;;;;;;;0.70;0.70;;;8.70;99.90;;;;;;5040300;28;20812;-72
2024/01/03 05:32:05;;;;;;;2.75;2.15;;;8.80;99.90;;;;;;5067481;28;20040;-72
2024/01/03 05:34:30;;;;;;;0.75;0.60;;;8.80;99.90;;;;;;5057906;28;20044;-72
2024/01/03 05:36:56;;;;;;;0.77;0.77;;;8.80;99.90;;;;;;5068486;28;20040;-73
2024/01/03 05:39:22;;;;;;;1.63;1.52;;;8.80;99.90;;;;;;5055718;28;20052;-72
2024/01/03 05:41:48;;;;;;;1.10;0.90;;;8.80;99.90;;;;;;5044341;28;20047;-72
2024/01/03 05:44:13;;;;;;;1.08;1.08;;;8.80;99.90;;;;;;5065349;28;20076;-73
2024/01/03 05:46:40;;;;;;;0.70;0.70;;;8.90;99.90;;;;;;5061140;28;20406;-72
2024/01/03 05:49:05;;;;;;;1.13;1.13;;;8.90;99.90;;;;;;5068213;28;20044;-73
2024/01/03 05:51:31;;;;;;;1.30;1.13;;;8.90;99.90;;;;;;5048552;28;20040;-71
2024/01/03 05:53:57;;;;;;;1.83;1.73;;;8.90;99.90;;;;;;5042766;28;20051;-73
2024/01/03 05:56:22;;;;;;;1.58;1.48;;;8.90;99.90;;;;;;5051261;28;20076;-73
2024/01/03 05:58:48;;;;;;;2.03;1.85;;;8.90;99.90;;;;;;5057865;28;20115;-73
2024/01/03 06:01:15;;;;;;;0.50;0.50;;;8.90;99.90;;;;;;5043218;28;20621;-73
2024/01/03 06:03:40;;;;;;;1.20;1.08;;;8.90;99.90;;;;;;5056752;28;20375;-72
2024/01/03 06:06:06;;;;;;;1.15;1.05;;;8.90;99.90;;;;;;5049305;28;20050;-73
2024/01/03 06:08:32;;;;;;;0.65;0.65;;;8.90;99.90;;;;;;5051107;28;20048;-73
2024/01/03 06:10:58;;;;;;;0.98;0.98;;;8.90;99.90;;;;;;5043145;28;20037;-72
2024/01/03 06:13:23;;;;;;;0.60;0.60;;;8.90;99.90;;;;;;5049925;28;20052;-72
2024/01/03 06:15:49;;;;;;;0.73;0.73;;;8.90;99.90;;;;;;5062587;28;20044;-72
2024/01/03 06:18:15;;;;;;;0.75;0.75;;;8.90;99.90;;;;;;5061868;28;20498;-72
2024/01/03 06:20:40;;;;;;;0.93;0.93;;;8.80;99.90;;;;;;5037239;28;20048;-72
2024/01/03 06:23:06;;;;;;;0.52;0.52;;;8.80;99.90;;;;;;5064794;28;20047;-72
2024/01/03 06:25:32;;;;;;;1.05;1.05;;;8.90;99.90;;;;;;5062472;28;20052;-73
2024/01/03 06:27:58;;;;;;;1.85;1.50;;;8.80;99.90;;;;;;5071026;28;20079;-72
2024/01/03 06:30:24;;;;;;;0.77;0.77;;;8.80;99.90;;;;;;5067483;28;20049;-72
2024/01/03 06:32:49;;;;;;;0.40;0.40;;;8.80;99.90;;;;;;5067169;28;20448;-72
2024/01/03 06:35:15;;;;;;;0.60;0.60;;;8.80;99.90;;;;;;5070038;28;20061;-73
2024/01/03 06:37:41;;;;;;;2.17;1.15;;;8.80;99.90;;;;;;5060827;28;20123;-72
2024/01/03 06:40:08;;;;;;;0.82;0.82;;;8.80;99.90;;;;;;5064248;28;20157;-72
2024/01/03 06:42:33;;;;;;;5.63;1.83;;;8.80;99.90;;;;;;5058157;28;20568;-72
2024/01/03 06:44:59;;;;;;;0.90;0.90;;;8.80;99.90;;;;;;5056992;28;20062;-72
2024/01/03 06:47:25;;;;;;;0.70;0.70;;;8.80;99.90;;;;;;5061985;28;20036;-72
2024/01/03 06:49:51;;;;;;;0.57;0.57;;;8.80;99.90;;;;;;5056163;28;20053;-72
2024/01/03 06:52:16;;;;;;;0.70;0.70;;;8.80;99.90;;;;;;5065288;28;20032;-72
2024/01/03 06:54:42;;;;;;;0.63;0.63;;;8.80;99.90;;;;;;5067843;28;20044;-72
2024/01/03 06:57:08;;;;;;;0.40;0.40;;;8.80;99.90;;;;;;5070189;28;20508;-73
2024/01/03 06:59:36;;;;;;;1.20;1.02;;;8.80;99.90;;;;;;5063144;28;20070;-73
2024/01/03 07:02:03;;;;;;;1.00;1.00;;;8.80;99.90;;;;;;5058255;28;20079;-72
2024/01/03 07:04:28;;;;;;;0.68;0.68;;;8.80;99.90;;;;;;5042435;28;20402;-72
2024/01/03 07:06:54;;;;;;;0.47;0.47;;;8.80;99.90;;;;;;5064016;28;20040;-72
2024/01/03 07:09:20;;;;;;;0.60;0.60;;;8.70;99.90;;;;;;5056861;28;20475;-72
2024/01/03 07:11:46;;;;;;;2.40;1.90;;;8.80;99.90;;;;;;5064861;28;20055;-72
2024/01/03 07:14:13;;;;;;;0.50;0.50;;;8.70;99.90;;;;;;5065821;28;20461;-73
2024/01/03 07:16:39;;;;;;;0.50;0.50;;;8.80;99.90;;;;;;5056236;28;20067;-72
2024/01/03 07:19:05;;;;;;;0.70;0.70;;;8.80;99.90;;;;;;5063227;28;20487;-73
2024/01/03 07:21:32;;;;;;;0.60;0.60;;;8.70;99.90;;;;;;5055745;28;20052;-73
2024/01/03 07:23:58;;;;;;;0.70;0.70;;;8.70;99.90;;;;;;5042347;28;20039;-72
2024/01/03 07:26:24;;;;;;;1.08;0.95;;;8.70;99.90;;;;;;5041496;28;20044;-72
2024/01/03 07:28:50;;;;;;;0.52;0.52;;;8.60;99.90;;;;;;5057153;28;20052;-72
2024/01/03 07:31:15;;;;;;;0.65;0.65;;;8.60;99.90;;;;;;5064317;28;20059;-73
2024/01/03 07:33:41;;;;;;;14.52;1.85;;;8.50;99.90;;;;;;5060371;28;20036;-72
2024/01/03 07:36:08;;;;;;;0.73;0.73;;;8.60;99.90;;;;;;5044254;28;20036;-72
2024/01/03 07:38:33;;;;;;;0.50;0.50;;;8.50;99.90;;;;;;5061085;28;20074;-72
2024/01/03 07:41:00;;;;;;;0.60;0.60;;;8.60;99.90;;;;;;5037191;28;20530;-72
2024/01/03 07:43:29;;;;;;;0.68;0.68;;;8.60;99.90;;;;;;5052517;28;20044;-72
2024/01/03 07:45:55;;;;;;;0.75;0.75;;;8.60;99.90;;;;;;5058035;28;20124;-73
2024/01/03 07:48:21;;;;;;;0.93;0.93;;;8.60;99.90;;;;;;5049674;28;20102;-73
2024/01/03 07:50:47;;;;;;;0.50;0.50;;;8.60;99.90;;;;;;5051278;28;20053;-72
2024/01/03 07:53:12;;;;;;;0.50;0.50;;;8.60;99.90;;;;;;5059329;28;20033;-72
2024/01/03 07:55:38;;;;;;;0.70;0.70;;;8.60;99.90;;;;;;5049178;28;20037;-72
2024/01/03 07:58:04;;;;;;;1.23;0.60;;;8.60;99.90;;;;;;5049486;28;20172;-73
2024/01/03 08:00:30;;;;;;;1.05;1.05;;;8.60;99.90;;;;;;5054194;28;20051;-72
2024/01/03 08:02:57;;;;;;;0.80;0.80;;;8.60;99.90;;;;;;5038247;28;20044;-73
2024/01/03 08:05:23;;;;;;;0.70;0.70;;;8.60;99.90;;;;;;5057498;28;20132;-72
2024/01/03 08:07:49;;;;;;;0.40;0.40;;;8.50;99.90;;;;;;5061057;28;20040;-72
2024/01/03 08:10:15;;;;;;;2.05;1.00;;;8.40;99.90;;;;;;5063889;28;20104;-72
2024/01/03 08:12:41;;;;;;;1.15;1.15;;;8.40;99.90;;;;;;5057434;28;20490;-72
2024/01/03 08:15:07;;;;;;;0.63;0.63;;;8.30;99.90;;;;;;5035738;28;20067;-73
2024/01/03 08:17:33;;;;;;;1.65;0.85;;;8.30;99.90;;;;;;5043467;28;20037;-73
2024/01/03 08:19:58;;;;;;;0.50;0.50;;;8.30;99.90;;;;;;5048295;28;20028;-74
2024/01/03 08:22:24;;;;;;;0.52;0.52;;;8.30;99.90;;;;;;5057487;28;20045;-73
2024/01/03 08:24:50;;;;;;;0.60;0.60;;;8.30;99.90;;;;;;5056379;28;20123;-73
2024/01/03 08:27:17;;;;;;;0.40;0.40;;;8.20;99.90;;;;;;5038878;28;20131;-73
2024/01/03 08:29:44;;;;;;;0.70;0.70;;;8.30;99.90;;;;;;5058683;28;20124;-73
2024/01/03 08:32:09;;;;;;;6.95;2.15;;;8.30;99.90;;;;;;5064159;28;20040;-78
2024/01/03 08:34:35;;;;;;;10.73;0.77;;;8.30;99.90;;;;;;5042922;28;20086;-75
2024/01/03 08:37:01;;;;;;;8.15;1.48;;;8.20;99.90;;;;;;5037566;28;20410;-75
2024/01/03 08:39:26;;;;;;;0.47;0.47;;;8.20;99.90;;;;;;5043689;28;20513;-75
2024/01/03 08:41:53;;;;;;;0.65;0.60;;;8.20;99.90;;;;;;5063576;28;20037;-75
2024/01/03 08:44:20;;;;;;;0.73;0.60;;;8.20;99.90;;;;;;5037668;28;20052;-75
2024/01/03 08:46:45;;;;;;;0.80;0.80;;;8.20;99.90;;;;;;5060602;28;20577;-75
2024/01/03 08:49:12;;;;;;;0.60;0.60;;;8.20;99.90;;;;;;5043843;28;20056;-75
2024/01/03 08:51:38;;;;;;;0.63;0.63;;;8.20;99.90;;;;;;5057046;28;20079;-75
2024/01/03 08:54:04;;;;;;;0.70;0.70;;;8.20;99.90;;;;;;5048696;28;20036;-74
2024/01/03 08:56:29;;;;;;;0.47;0.47;;;8.10;99.90;;;;;;5048945;28;20036;-75
2024/01/03 08:58:55;;;;;;;0.60;0.60;;;8.10;99.90;;;;;;5047862;28;20064;-75
2024/01/03 09:01:23;;;;;;;0.95;0.95;;;8.20;99.90;;;;;;5062504;28;20051;-75
2024/01/03 09:03:49;;;;;;;0.80;0.80;;;8.20;99.90;;;;;;5063693;28;20048;-75
2024/01/03 09:06:20;;;;;;;0.50;0.50;;;8.20;99.90;;;;;;5069221;28;20040;-75
2024/01/03 09:08:50;;;;;;;0.40;0.40;;;8.30;99.90;;;;;;5063390;28;20044;-75
2024/01/03 09:11:22;;;;;;;0.50;0.50;;;8.30;99.90;;;;;;5052577;28;20473;-75
2024/01/03 09:13:49;;;;;;;0.47;0.47;;;8.30;99.90;;;;;;5044742;28;20044;-75
2024/01/03 09:16:18;;;;;;;0.68;0.68;;;8.40;99.90;;;;;;5052052;28;20486;-75
2024/01/03 09:18:45;;;;;;;0.65;0.65;;;8.40;99.90;;;;;;5042416;28;20040;-75
2024/01/03 09:21:10;;;;;;;0.70;0.70;;;8.40;99.90;;;;;;5048227;28;20038;-74
2024/01/03 09:23:36;;;;;;;1.83;1.73;;;8.50;99.90;;;;;;5058715;28;20044;-74
2024/01/03 09:26:06;;;;;;;0.60;0.60;;;8.50;99.90;;;;;;5067954;28;20040;-75
2024/01/03 09:28:34;;;;;;;0.80;0.80;;;8.50;99.90;;;;;;5059321;28;20056;-75
2024/01/03 09:31:02;;;;;;;0.70;0.68;;;8.60;99.90;;;;;;5044373;28;20059;-74
2024/01/03 09:33:28;;;;;;;0.70;0.70;;;8.60;99.90;;;;;;5051401;28;20090;-75
2024/01/03 09:35:53;;;;;;;0.50;0.50;;;8.60;99.90;;;;;;5067520;28;20115;-75
2024/01/03 09:38:19;;;;;;;0.80;0.80;;;8.60;99.90;;;;;;5047829;28;20048;-75
2024/01/03 09:40:45;;;;;;;0.50;0.50;;;8.60;99.90;;;;;;5068589;28;20147;-76
2024/01/03 09:43:12;;;;;;;0.43;0.43;;;8.70;99.90;;;;;;5051698;28;20047;-75
2024/01/03 09:45:38;;;;;;;0.50;0.50;;;8.60;99.90;;;;;;5062511;28;20059;-74
2024/01/03 09:48:04;;;;;;;2.85;1.15;;;8.70;99.90;;;;;;5049244;28;20041;-74
2024/01/03 09:50:31;;;;;;;1.00;1.00;;;8.70;99.90;;;;;;5061387;28;20040;-74
2024/01/03 09:52:58;;;;;;;0.68;0.60;;;8.70;99.90;;;;;;5068426;28;20440;-74
2024/01/03 09:55:23;;;;;;;0.50;0.50;;;8.70;99.90;;;;;;5068025;28;20040;-74
2024/01/03 09:57:54;;;;;;;0.50;0.50;;;8.70;99.90;;;;;;5067797;28;20046;-74
2024/01/03 10:00:19;;;;;;;0.40;0.40;;;8.70;99.90;;;;;;5062999;28;20119;-75
2024/01/03 10:02:47;;;;;;;0.50;0.50;;;8.80;99.90;;;;;;5065736;28;20167;-74
2024/01/03 10:05:20;;;;;;;0.50;0.50;;;8.90;99.90;;;;;;5051301;28;20453;-74
2024/01/03 10:07:46;;;;;;;0.50;0.50;;;8.90;99.90;;;;;;5062848;28;20486;-74
2024/01/03 10:10:12;;;;;;;0.50;0.50;;;9.00;99.90;;;;;;5068451;28;20055;-73
2024/01/03 10:12:37;;;;;;;0.52;0.52;;;8.90;99.90;;;;;;5064273;28;20045;-73
2024/01/03 10:15:19;;;;;;;6.90;0.93;;;9.00;99.90;;;;;;5051562;28;20120;-73
2024/01/03 10:17:46;;;;;;;1.25;1.25;;;9.00;99.90;;;;;;5061258;28;20502;-73
2024/01/03 10:20:26;;;;;;;0.93;0.93;;;9.00;99.90;;;;;;5061737;28;20036;-73
2024/01/03 10:23:09;;;;;;;0.85;0.85;;;9.00;99.90;;;;;;5067104;28;20044;-73
2024/01/03 10:25:37;;;;;;;0.50;0.50;;;9.10;99.90;;;;;;5066804;28;20498;-72
2024/01/03 10:28:04;;;;;;;0.50;0.50;;;9.10;99.90;;;;;;5048873;28;20036;-74
2024/01/03 10:30:30;;;;;;;0.80;0.80;;;9.10;99.90;;;;;;5047868;28;20067;-73
2024/01/03 10:32:59;;;;;;;0.50;0.50;;;9.10;99.90;;;;;;5059868;28;20548;-74
2024/01/03 10:35:29;;;;;;;1.00;0.95;;;9.10;99.90;;;;;;5049841;28;20043;-72
2024/01/03 10:37:57;;;;;;;0.40;0.40;;;9.10;99.90;;;;;;5053582;28;20029;-74
2024/01/03 10:40:27;;;;;;;0.50;0.50;;;9.10;99.90;;;;;;5066467;28;20071;-74
2024/01/03 10:42:53;;;;;;;0.50;0.50;;;9.20;99.90;;;;;;5060432;28;20086;-74
2024/01/03 10:45:20;;;;;;;0.47;0.47;;;9.20;99.90;;;;;;5065990;28;20429;-73
2024/01/03 10:47:46;;;;;;;0.57;0.57;;;9.10;99.90;;;;;;5060574;28;20115;-73
2024/01/03 10:50:12;;;;;;;1.05;1.05;;;9.20;99.90;;;;;;5053892;28;20095;-74
2024/01/03 10:52:40;;;;;;;0.95;0.95;;;9.20;99.90;;;;;;5034743;28;20037;-74
2024/01/03 10:55:10;;;;;;;0.40;0.40;;;9.20;99.90;;;;;;5046486;28;20036;-74
2024/01/03 10:57:36;;;;;;;0.73;0.73;;;9.20;99.90;;;;;;5042048;28;20045;-73
2024/01/03 11:00:12;;;;;;;0.85;0.85;;;9.30;99.90;;;;;;5066905;28;20040;-73
2024/01/03 11:02:46;;;;;;;0.75;0.75;;;9.30;99.90;;;;;;5063232;28;20048;-73
2024/01/03 11:05:23;;;;;;;0.50;0.50;;;9.30;99.90;;;;;;5060131;28;20429;-73
2024/01/03 11:07:54;;;;;;;0.50;0.50;;;9.30;99.90;;;;;;5062325;28;20116;-73
2024/01/03 11:10:49;;;;;;;0.40;0.40;;;9.40;99.90;;;;;;5064547;28;20094;-73
2024/01/03 11:13:29;;;;;;;0.60;0.60;;;9.40;99.90;;;;;;5066941;28;20040;-73
2024/01/03 11:15:56;;;;;;;0.60;0.60;;;9.40;99.90;;;;;;5045168;28;20039;-73
2024/01/03 11:18:40;;;;;;;0.50;0.50;;;9.40;99.90;;;;;;5062916;28;20037;-73
2024/01/03 11:21:23;;;;;;;0.73;0.73;;;9.50;99.90;;;;;;5046952;28;20044;-73
2024/01/03 11:23:49;;;;;;;0.43;0.43;;;9.50;99.90;;;;;;5041361;28;20051;-73
2024/01/03 11:26:14;;;;;;;0.82;0.82;;;9.60;99.90;;;;;;5057028;28;20048;-74
2024/01/03 11:28:48;;;;;;;0.65;0.65;;;9.60;99.90;;;;;;5041331;28;20112;-76
2024/01/03 11:31:15;;;;;;;0.70;0.70;;;9.70;99.90;;;;;;5043731;28;20044;-77
2024/01/03 11:33:42;;;;;;;0.55;0.55;;;9.70;99.90;;;;;;5061293;28;20047;-78
2024/01/03 11:36:08;;;;;;;0.50;0.50;;;9.80;99.90;;;;;;5057700;28;20040;-78
2024/01/03 11:38:43;;;;;;;0.50;0.50;;;9.90;99.90;;;;;;5065736;28;20033;-79
2024/01/03 11:41:18;;;;;;;0.60;0.60;;;9.90;99.90;;;;;;5049990;28;20178;-79
2024/01/03 11:43:46;;;;;;;0.63;0.63;;;9.90;99.90;;;;;;5057311;28;20047;-78
2024/01/03 11:46:12;;;;;;;0.50;0.50;;;9.90;99.90;;;;;;5059510;28;20044;-77
2024/01/03 11:48:39;;;;;;;0.40;0.40;;;9.90;99.90;;;;;;5062834;28;20043;-77
2024/01/03 11:51:27;;;;;;;1.98;1.23;;;9.80;99.90;;;;;;5062929;28;20055;-76
2024/01/03 11:53:53;;;;;;;;;;;9.80;99.90;;;;;;5061661;28;20029;-80
2024/01/03 11:56:31;;;;;;;5.95;1.05;;;9.80;99.90;;;;;;5047846;28;19999;-79
2024/01/03 11:58:57;;;;;;;0.40;0.40;;;9.80;99.90;;;;;;5050685;28;20036;-79
2024/01/03 12:01:24;;;;;;;0.43;0.43;;;9.80;99.90;;;;;;5048625;28;20443;-79
2024/01/03 12:03:51;;;;;;;0.55;0.55;;;9.80;99.90;;;;;;5066656;28;20083;-78
2024/01/03 12:06:21;;;;;;;0.45;0.45;;;9.70;99.90;;;;;;5046871;28;20451;-73
2024/01/03 12:08:47;;;;;;;1.23;1.05;;;9.70;99.90;;;;;;5060083;28;20053;-77
2024/01/03 12:11:13;;;;;;;1.40;1.27;;;9.70;99.90;;;;;;5045521;28;20039;-75
2024/01/03 12:13:39;;;;;;;0.80;0.80;;;9.60;99.90;;;;;;5048176;28;20036;-75
2024/01/03 12:16:05;;;;;;;1.08;1.05;;;9.60;99.90;;;;;;5072728;28;20046;-75
2024/01/03 12:18:32;;;;;;;0.40;0.40;;;9.50;99.90;;;;;;5049085;28;20047;-75
2024/01/03 12:21:10;;;;;;;0.50;0.50;;;9.50;99.90;;;;;;5047256;28;20048;-75
2024/01/03 12:23:35;;;;;;;1.55;1.23;;;9.50;99.90;;;;;;5061292;28;20067;-75
2024/01/03 12:26:09;;;;;;;0.40;0.40;;;9.40;99.90;;;;;;5065780;28;20585;-75
2024/01/03 12:28:35;;;;;;;0.50;0.50;;;9.40;99.90;;;;;;5045246;28;20091;-75
2024/01/03 12:31:01;;;;;;;0.70;0.70;;;9.30;99.90;;;;;;5065561;28;20417;-75
2024/01/03 12:33:26;;;;;;;0.40;0.40;;;9.30;99.90;;;;;;5041425;28;20194;-75
2024/01/03 12:35:53;;;;;;;2.42;0.90;;;9.30;99.90;;;;;;5065681;28;20060;-75
2024/01/03 12:38:22;;;;;;;1.10;0.80;;;9.30;99.90;;;;;;5045162;28;20113;-75
2024/01/03 12:40:48;;;;;;;0.60;0.60;;;9.30;99.90;;;;;;5048816;28;20051;-78
2024/01/03 12:43:14;;;;;;;0.80;0.80;;;9.10;99.90;;;;;;5048753;28;20406;-75
2024/01/03 12:45:40;;;;;;;0.60;0.60;;;9.20;99.90;;;;;;5048792;28;20127;-76
2024/01/03 12:48:06;;;;;;;3.00;0.55;;;9.20;99.90;;;;;;5049440;28;20040;-76
2024/01/03 12:50:31;;;;;;;0.40;0.40;;;9.10;99.90;;;;;;5049243;28;20113;-75
2024/01/03 12:52:57;;;;;;;0.43;0.43;;;9.10;99.90;;;;;;5066005;28;20518;-76
2024/01/03 12:55:23;;;;;;;0.45;0.45;;;9.10;99.90;;;;;;5063410;28;21737;-73
2024/01/03 12:57:48;;;;;;;1.15;0.77;;;9.10;99.90;;;;;;5054288;28;20067;-73